Time;durP1;ratioP1;P1;durP2;ratioP2;P2;SDS_P1;SDS_P2;PMS_P1;PMS_P2;Temp;Humidity;BMP_temperature;BMP_pressure;BME280_temperature;BME280_humidity;BME280_pressure;Samples;Min_cycle;Max_cycle;Signal;HPM_P1;HPM_P2
2024/01/20 00:00:11;;;;;;;44.30;22.33;;;;;;;-1.71;100.00;102618.25;5022460;28;20469;-64
2024/01/20 00:02:37;;;;;;;48.45;22.52;;;;;;;-1.69;100.00;102626.94;5015649;28;20032;-65
2024/01/20 00:05:02;;;;;;;44.25;21.17;;;;;;;-1.69;100.00;102627.78;5021359;28;20108;-65
2024/01/20 00:07:28;;;;;;;48.70;22.83;;;;;;;-1.68;100.00;102626.94;5019055;28;20022;-65
2024/01/20 00:09:53;;;;;;;45.20;21.70;;;;;;;-1.66;100.00;102626.94;5018944;28;20068;-64
2024/01/20 00:12:18;;;;;;;43.05;21.13;;;;;;;-1.65;100.00;102627.81;5015816;28;20030;-65
2024/01/20 00:14:43;;;;;;;46.85;22.55;;;;;;;-1.65;100.00;102630.41;5021030;28;20069;-64
2024/01/20 00:17:09;;;;;;;42.10;21.13;;;;;;;-1.64;100.00;102632.16;5020407;28;20029;-64
2024/01/20 00:19:34;;;;;;;46.33;21.13;;;;;;;-1.63;100.00;102629.56;5020379;28;20026;-64
2024/01/20 00:21:59;;;;;;;44.67;20.90;;;;;;;-1.63;100.00;102632.16;5018515;28;20052;-64
2024/01/20 00:24:24;;;;;;;46.40;22.27;;;;;;;-1.60;100.00;102640.00;5019409;28;20398;-64
2024/01/20 00:26:50;;;;;;;43.08;20.10;;;;;;;-1.59;100.00;102631.28;5022568;28;20037;-64
2024/01/20 00:29:15;;;;;;;43.00;21.67;;;;;;;-1.57;100.00;102636.50;5025212;28;20030;-64
2024/01/20 00:31:40;;;;;;;45.83;21.75;;;;;;;-1.58;100.00;102630.44;5017060;28;20033;-65
2024/01/20 00:34:05;;;;;;;46.97;21.67;;;;;;;-1.56;100.00;102631.31;5020332;28;20403;-64
2024/01/20 00:36:31;;;;;;;43.63;20.52;;;;;;;-1.57;100.00;102626.94;5016828;28;20029;-64
2024/01/20 00:38:56;;;;;;;40.70;20.00;;;;;;;-1.55;100.00;102629.56;5020548;28;20034;-65
2024/01/20 00:41:21;;;;;;;43.45;21.50;;;;;;;-1.56;100.00;102633.06;5021145;28;20022;-64
2024/01/20 00:43:47;;;;;;;42.22;21.23;;;;;;;-1.56;100.00;102618.28;5016291;28;20097;-64
2024/01/20 00:46:12;;;;;;;43.47;21.58;;;;;;;-1.55;100.00;102625.25;5018788;28;20029;-64
2024/01/20 00:48:37;;;;;;;41.65;20.23;;;;;;;-1.54;100.00;102628.72;5022744;28;20033;-64
2024/01/20 00:51:03;;;;;;;45.15;22.00;;;;;;;-1.55;100.00;102624.34;5020520;28;20168;-64
2024/01/20 00:53:28;;;;;;;44.70;21.45;;;;;;;-1.55;100.00;102629.56;5021383;28;20049;-64
2024/01/20 00:55:53;;;;;;;38.90;20.80;;;;;;;-1.56;100.00;102631.31;5019840;28;20502;-64
2024/01/20 00:58:18;;;;;;;45.50;21.95;;;;;;;-1.56;100.00;102628.72;5018206;28;20030;-64
2024/01/20 01:00:44;;;;;;;42.33;20.48;;;;;;;-1.55;100.00;102621.75;5020018;28;20041;-64
2024/01/20 01:03:09;;;;;;;43.30;21.50;;;;;;;-1.53;100.00;102623.50;5023680;28;20462;-64
2024/01/20 01:05:34;;;;;;;44.28;20.90;;;;;;;-1.54;100.00;102620.91;5018333;28;20113;-64
2024/01/20 01:07:59;;;;;;;41.92;20.67;;;;;;;-1.55;100.00;102624.34;5021923;28;20103;-64
2024/01/20 01:10:25;;;;;;;42.55;20.88;;;;;;;-1.54;100.00;102621.75;5019172;28;20113;-65
2024/01/20 01:12:50;;;;;;;42.35;21.50;;;;;;;-1.55;100.00;102627.84;5021050;28;20036;-64
2024/01/20 01:15:16;;;;;;;42.88;20.45;;;;;;;-1.55;100.00;102620.03;5015984;28;20025;-65
2024/01/20 01:17:41;;;;;;;46.25;20.98;;;;;;;-1.55;100.00;102622.63;5021453;28;20536;-65
2024/01/20 01:20:08;;;;;;;42.28;20.10;;;;;;;-1.55;100.00;102635.66;5026057;28;20021;-64
2024/01/20 01:22:33;;;;;;;39.33;19.27;;;;;;;-1.54;100.00;102624.34;5019109;28;20037;-65
2024/01/20 01:24:59;;;;;;;43.35;19.83;;;;;;;-1.56;100.00;102620.03;5019097;28;20463;-65
2024/01/20 01:27:24;;;;;;;37.05;19.27;;;;;;;-1.56;100.00;102623.50;5022088;28;20030;-65
2024/01/20 01:29:49;;;;;;;38.00;19.70;;;;;;;-1.55;100.00;102625.25;5017290;28;20021;-65
2024/01/20 01:32:15;;;;;;;37.75;18.45;;;;;;;-1.56;100.00;102626.09;5021610;28;20437;-64
2024/01/20 01:34:40;;;;;;;39.53;19.85;;;;;;;-1.53;100.00;102635.69;5019467;28;20034;-64
2024/01/20 01:37:05;;;;;;;40.75;19.38;;;;;;;-1.53;100.00;102636.53;5024315;28;20026;-64
2024/01/20 01:39:30;;;;;;;41.08;19.55;;;;;;;-1.52;100.00;102634.78;5018642;28;20510;-64
2024/01/20 01:41:56;;;;;;;40.38;19.45;;;;;;;-1.50;100.00;102640.88;5025704;28;20026;-64
2024/01/20 01:44:21;;;;;;;41.13;19.92;;;;;;;-1.51;100.00;102636.53;5022500;28;20344;-64
2024/01/20 01:46:46;;;;;;;42.55;20.25;;;;;;;-1.49;100.00;102640.00;5019357;28;20033;-65
2024/01/20 01:49:12;;;;;;;39.00;20.52;;;;;;;-1.51;100.00;102641.75;5019665;28;20094;-64
2024/01/20 01:51:38;;;;;;;35.72;18.75;;;;;;;-1.51;100.00;102646.97;5018237;28;20084;-65
2024/01/20 01:54:04;;;;;;;43.35;19.90;;;;;;;-1.50;100.00;102651.28;5021601;28;20036;-64
2024/01/20 01:56:30;;;;;;;41.20;20.15;;;;;;;-1.53;100.00;102649.56;5026337;28;20047;-64
2024/01/20 01:58:56;;;;;;;41.20;20.60;;;;;;;-1.54;100.00;102655.63;5020146;28;20026;-64
2024/01/20 02:01:21;;;;;;;43.13;19.77;;;;;;;-1.54;100.00;102654.78;5020802;28;20045;-64
2024/01/20 02:03:47;;;;;;;35.72;19.65;;;;;;;-1.54;100.00;102654.78;5021401;28;20032;-64
2024/01/20 02:06:12;;;;;;;40.53;21.08;;;;;;;-1.56;100.00;102669.53;5017650;28;20033;-64
2024/01/20 02:08:41;;;;;;;36.70;19.92;;;;;;;-1.56;100.00;102666.94;5018016;28;20545;-64
2024/01/20 02:11:07;;;;;;;43.67;20.43;;;;;;;-1.56;100.00;102669.53;5021362;28;20026;-64
2024/01/20 02:13:33;;;;;;;41.40;20.38;;;;;;;-1.58;100.00;102671.25;5015876;28;20065;-64
2024/01/20 02:16:00;;;;;;;34.35;18.52;;;;;;;-1.59;100.00;102666.91;5020190;28;20048;-64
2024/01/20 02:18:25;;;;;;;39.65;19.42;;;;;;;-1.60;100.00;102671.25;5020021;28;20093;-64
2024/01/20 02:20:51;;;;;;;40.33;20.80;;;;;;;-1.59;100.00;102667.78;5018178;28;20049;-64
2024/01/20 02:23:16;;;;;;;40.70;20.38;;;;;;;-1.61;100.00;102674.72;5019509;28;20060;-64
2024/01/20 02:25:41;;;;;;;41.28;20.33;;;;;;;-1.60;100.00;102671.25;5022871;28;20025;-64
2024/01/20 02:28:07;;;;;;;39.15;20.48;;;;;;;-1.61;100.00;102671.25;5017977;28;20029;-64
2024/01/20 02:30:32;;;;;;;39.03;19.98;;;;;;;-1.61;100.00;102676.47;5019708;28;20371;-64
2024/01/20 02:32:57;;;;;;;40.15;20.38;;;;;;;-1.59;100.00;102679.94;5019944;28;20029;-64
2024/01/20 02:35:23;;;;;;;36.83;19.45;;;;;;;-1.60;100.00;102683.41;5016668;28;20034;-64
2024/01/20 02:37:48;;;;;;;39.70;20.35;;;;;;;-1.61;100.00;102684.28;5025578;28;20279;-64
2024/01/20 02:40:13;;;;;;;36.88;20.38;;;;;;;-1.60;100.00;102684.28;5014501;28;20026;-64
2024/01/20 02:42:39;;;;;;;39.20;21.17;;;;;;;-1.58;100.00;102672.13;5018719;28;20382;-64
2024/01/20 02:45:04;;;;;;;42.65;21.08;;;;;;;-1.57;100.00;102675.59;5014249;28;20061;-64
2024/01/20 02:47:30;;;;;;;40.38;19.73;;;;;;;-1.56;100.00;102677.34;5019808;28;20425;-64
2024/01/20 02:49:55;;;;;;;38.67;19.75;;;;;;;-1.55;100.00;102671.25;5023377;28;20018;-64
2024/01/20 02:52:20;;;;;;;39.20;20.02;;;;;;;-1.56;100.00;102673.00;5019425;28;20037;-64
2024/01/20 02:54:45;;;;;;;37.95;19.88;;;;;;;-1.57;100.00;102675.59;5013120;28;20029;-64
2024/01/20 02:57:11;;;;;;;35.15;18.67;;;;;;;-1.58;100.00;102668.63;5018404;28;20120;-64
2024/01/20 02:59:36;;;;;;;35.65;20.23;;;;;;;-1.62;100.00;102669.50;5016822;28;20030;-64
2024/01/20 03:02:02;;;;;;;34.55;18.83;;;;;;;-1.63;100.00;102673.84;5017673;28;20022;-64
2024/01/20 03:04:27;;;;;;;36.65;19.42;;;;;;;-1.63;100.00;102683.38;5023528;28;20026;-64
2024/01/20 03:06:53;;;;;;;37.78;19.00;;;;;;;-1.63;100.00;102688.59;5020344;28;20021;-64
2024/01/20 03:09:18;;;;;;;34.35;18.75;;;;;;;-1.61;100.00;102692.09;5020757;28;20026;-65
2024/01/20 03:11:43;;;;;;;37.70;18.73;;;;;;;-1.61;100.00;102692.97;5018616;28;20032;-64
2024/01/20 03:14:09;;;;;;;39.17;20.80;;;;;;;-1.61;100.00;102692.97;5019113;28;20606;-64
2024/01/20 03:16:35;;;;;;;36.80;18.70;;;;;;;-1.59;100.00;102696.44;5017246;28;20120;-64
2024/01/20 03:19:00;;;;;;;38.03;20.45;;;;;;;-1.59;100.00;102696.44;5017052;28;20026;-64
2024/01/20 03:21:25;;;;;;;41.40;20.27;;;;;;;-1.56;100.00;102693.00;5020845;28;20029;-64
2024/01/20 03:23:53;;;;;;;45.53;20.70;;;;;;;-1.57;100.00;102696.44;5023818;28;20446;-64
2024/01/20 03:26:19;;;;;;;37.80;20.08;;;;;;;-1.58;100.00;102706.00;5023272;28;20022;-64
2024/01/20 03:28:44;;;;;;;37.97;18.77;;;;;;;-1.59;100.00;102698.19;5022850;28;20028;-64
2024/01/20 03:31:09;;;;;;;35.88;18.42;;;;;;;-1.59;100.00;102693.84;5021215;28;20575;-64
2024/01/20 03:33:35;;;;;;;36.13;18.58;;;;;;;-1.57;100.00;102704.25;5024687;28;20099;-64
2024/01/20 03:36:00;;;;;;;38.13;19.67;;;;;;;-1.57;100.00;102696.44;5017954;28;20555;-64
2024/01/20 03:38:26;;;;;;;39.88;20.25;;;;;;;-1.55;100.00;102697.31;5016610;28;20483;-64
2024/01/20 03:40:51;;;;;;;36.90;19.40;;;;;;;-1.55;100.00;102699.91;5024246;28;20030;-64
2024/01/20 03:43:16;;;;;;;37.08;18.90;;;;;;;-1.57;100.00;102693.84;5022818;28;20045;-64
2024/01/20 03:45:43;;;;;;;35.80;19.05;;;;;;;-1.56;100.00;102703.41;5022229;28;20029;-64
2024/01/20 03:48:08;;;;;;;35.97;19.42;;;;;;;-1.57;100.00;102702.53;5020815;28;20124;-64
2024/01/20 03:50:34;;;;;;;35.55;19.10;;;;;;;-1.56;100.00;102701.66;5024521;28;20108;-64
2024/01/20 03:53:00;;;;;;;37.53;19.63;;;;;;;-1.55;100.00;102705.13;5018968;28;20108;-64
2024/01/20 03:55:25;;;;;;;31.30;18.38;;;;;;;-1.55;100.00;102702.53;5020859;28;20022;-64
2024/01/20 03:57:50;;;;;;;35.88;18.67;;;;;;;-1.54;100.00;102704.28;5023127;28;20049;-64
2024/01/20 04:00:17;;;;;;;34.28;18.38;;;;;;;-1.54;100.00;102701.69;5024838;28;20045;-64
2024/01/20 04:02:42;;;;;;;34.80;18.98;;;;;;;-1.53;100.00;102703.44;5021384;28;20034;-64
2024/01/20 04:05:08;;;;;;;35.78;19.42;;;;;;;-1.55;100.00;102699.91;5023968;28;20021;-64
2024/01/20 04:07:33;;;;;;;35.70;18.52;;;;;;;-1.55;100.00;102695.59;5018678;28;20037;-64
2024/01/20 04:09:58;;;;;;;39.72;19.70;;;;;;;-1.53;100.00;102700.81;5020319;28;20120;-64
2024/01/20 04:12:24;;;;;;;38.85;19.10;;;;;;;-1.55;100.00;102697.31;5022412;28;20060;-64
2024/01/20 04:14:49;;;;;;;37.78;19.95;;;;;;;-1.58;100.00;102695.59;5024201;28;20050;-64
2024/01/20 04:17:15;;;;;;;35.25;18.90;;;;;;;-1.56;100.00;102703.41;5019138;28;20405;-64
2024/01/20 04:19:40;;;;;;;33.55;19.23;;;;;;;-1.54;100.00;102705.13;5022189;28;20017;-64
2024/01/20 04:22:05;;;;;;;34.60;18.15;;;;;;;-1.53;100.00;102704.28;5021821;28;20090;-64
2024/01/20 04:24:31;;;;;;;36.22;19.80;;;;;;;-1.54;100.00;102712.97;5020740;28;20030;-64
2024/01/20 04:26:56;;;;;;;34.42;19.00;;;;;;;-1.54;100.00;102718.16;5017786;28;20018;-64
2024/01/20 04:29:21;;;;;;;33.83;19.38;;;;;;;-1.55;100.00;102710.34;5022304;28;20435;-64
2024/01/20 04:31:47;;;;;;;39.17;18.70;;;;;;;-1.56;100.00;102714.69;5017164;28;20033;-64
2024/01/20 04:34:12;;;;;;;34.75;19.08;;;;;;;-1.55;100.00;102724.28;5021166;28;20425;-64
2024/01/20 04:36:37;;;;;;;32.55;18.85;;;;;;;-1.54;100.00;102733.81;5020746;28;20041;-64
2024/01/20 04:39:02;;;;;;;37.13;18.50;;;;;;;-1.53;100.00;102729.50;5022726;28;20065;-64
2024/01/20 04:41:28;;;;;;;34.00;18.95;;;;;;;-1.54;100.00;102732.94;5022618;28;20486;-64
2024/01/20 04:43:53;;;;;;;35.20;18.88;;;;;;;-1.53;100.00;102738.16;5022501;28;20040;-69
2024/01/20 04:46:18;;;;;;;33.75;18.48;;;;;;;-1.53;100.00;102726.88;5019592;28;20057;-64
2024/01/20 04:48:44;;;;;;;36.60;19.08;;;;;;;-1.52;100.00;102736.41;5019663;28;20037;-64
2024/01/20 04:51:09;;;;;;;36.15;19.40;;;;;;;-1.54;100.00;102730.34;5022347;28;20033;-64
2024/01/20 04:53:34;;;;;;;37.20;19.05;;;;;;;-1.54;100.00;102741.63;5015856;28;20046;-64
2024/01/20 04:56:03;;;;;;;33.95;18.80;;;;;;;-1.57;100.00;102740.75;5023388;28;20446;-64
2024/01/20 04:58:29;;;;;;;30.98;18.23;;;;;;;-1.55;100.00;102734.69;5022976;28;20435;-64
2024/01/20 05:00:54;;;;;;;34.63;17.85;;;;;;;-1.56;100.00;102732.94;5021617;28;20060;-64
2024/01/20 05:03:19;;;;;;;34.17;19.10;;;;;;;-1.54;100.00;102731.19;5023096;28;20030;-64
2024/01/20 05:05:45;;;;;;;36.10;18.08;;;;;;;-1.55;100.00;102729.47;5020001;28;20022;-65
2024/01/20 05:08:10;;;;;;;38.80;18.15;;;;;;;-1.56;100.00;102742.50;5020052;28;20041;-65
2024/01/20 05:10:35;;;;;;;32.42;18.30;;;;;;;-1.60;100.00;102736.41;5021003;28;20029;-64
2024/01/20 05:13:03;;;;;;;39.88;17.98;;;;;;;-1.61;100.00;102734.66;5022209;28;20029;-64
2024/01/20 05:15:28;;;;;;;35.13;17.48;;;;;;;-1.59;100.00;102739.88;5020968;28;20114;-64
2024/01/20 05:17:54;;;;;;;35.50;18.17;;;;;;;-1.59;100.00;102734.66;5022823;28;20109;-64
2024/01/20 05:20:19;;;;;;;36.22;17.98;;;;;;;-1.59;100.00;102745.09;5018729;28;20026;-64
2024/01/20 05:22:44;;;;;;;33.22;18.02;;;;;;;-1.59;100.00;102748.56;5015796;28;20083;-64
2024/01/20 05:25:10;;;;;;;32.75;16.80;;;;;;;-1.58;100.00;102744.19;5019743;28;20037;-64
2024/01/20 05:27:35;;;;;;;38.42;17.92;;;;;;;-1.58;100.00;102744.19;5020896;28;20034;-64
2024/01/20 05:30:00;;;;;;;31.42;17.13;;;;;;;-1.58;100.00;102745.09;5014418;28;20017;-64
2024/01/20 05:32:26;;;;;;;32.80;17.50;;;;;;;-1.58;100.00;102746.81;5018138;28;20498;-64
2024/01/20 05:34:51;;;;;;;35.13;18.95;;;;;;;-1.58;100.00;102741.59;5019422;28;20029;-67
2024/01/20 05:37:16;;;;;;;30.55;17.50;;;;;;;-1.58;100.00;102749.41;5018305;28;20575;-64
2024/01/20 05:39:42;;;;;;;30.48;17.55;;;;;;;-1.60;100.00;102748.53;5023087;28;20033;-64
2024/01/20 05:42:07;;;;;;;32.72;18.25;;;;;;;-1.59;100.00;102751.16;5023257;28;20081;-64
2024/01/20 05:44:32;;;;;;;32.90;16.83;;;;;;;-1.58;100.00;102752.00;5016770;28;20033;-64
2024/01/20 05:46:57;;;;;;;31.90;17.30;;;;;;;-1.60;100.00;102744.22;5020833;28;20025;-64
2024/01/20 05:49:23;;;;;;;29.38;16.17;;;;;;;-1.56;100.00;102753.78;5019264;28;20034;-64
2024/01/20 05:51:48;;;;;;;31.60;17.95;;;;;;;-1.58;100.00;102757.22;5022821;28;20164;-64
2024/01/20 05:54:13;;;;;;;31.92;17.58;;;;;;;-1.61;100.00;102754.63;5019582;28;20052;-64
2024/01/20 05:56:38;;;;;;;28.15;16.25;;;;;;;-1.62;100.00;102758.94;5018595;28;20033;-64
2024/01/20 05:59:04;;;;;;;28.48;17.35;;;;;;;-1.63;100.00;102762.44;5017485;28;20033;-64
2024/01/20 06:01:29;;;;;;;30.80;18.00;;;;;;;-1.63;100.00;102762.44;5018277;28;20052;-64
2024/01/20 06:03:55;;;;;;;30.15;16.65;;;;;;;-1.62;100.00;102773.72;5016433;28;20501;-64
2024/01/20 06:06:20;;;;;;;32.42;17.85;;;;;;;-1.61;100.00;102771.13;5020345;28;20036;-64
2024/01/20 06:08:46;;;;;;;28.50;16.90;;;;;;;-1.61;100.00;102768.53;5016333;28;20061;-64
2024/01/20 06:11:11;;;;;;;31.23;16.95;;;;;;;-1.62;100.00;102771.97;5020248;28;20093;-64
2024/01/20 06:13:37;;;;;;;37.78;18.20;;;;;;;-1.62;100.00;102778.94;5017478;28;20065;-64
2024/01/20 06:16:04;;;;;;;34.58;17.80;;;;;;;-1.67;100.00;102768.47;5013358;28;20040;-64
2024/01/20 06:18:31;;;;;;;30.38;17.10;;;;;;;-1.67;100.00;102771.09;5021274;28;20517;-64
2024/01/20 06:20:59;;;;;;;32.25;17.52;;;;;;;-1.67;100.00;102776.28;5019476;28;20025;-64
2024/01/20 06:23:24;;;;;;;32.08;17.80;;;;;;;-1.67;100.00;102773.69;5017491;28;20503;-64
2024/01/20 06:25:49;;;;;;;33.03;17.10;;;;;;;-1.66;100.00;102770.25;5016442;28;20053;-64
2024/01/20 06:28:15;;;;;;;31.00;17.55;;;;;;;-1.65;100.00;102784.97;5014482;28;20037;-64
2024/01/20 06:30:40;;;;;;;31.58;17.75;;;;;;;-1.65;100.00;102784.97;5021661;28;20021;-64
2024/01/20 06:33:05;;;;;;;30.88;17.13;;;;;;;-1.66;100.00;102782.41;5017597;28;20368;-64
2024/01/20 06:35:30;;;;;;;31.25;16.70;;;;;;;-1.68;100.00;102779.78;5018000;28;20463;-64
2024/01/20 06:37:57;;;;;;;29.20;16.80;;;;;;;-1.69;100.00;102784.09;5018009;28;20036;-64
2024/01/20 06:40:22;;;;;;;28.40;16.38;;;;;;;-1.71;100.00;102788.44;5015961;28;20067;-64
2024/01/20 06:42:48;;;;;;;28.88;17.38;;;;;;;-1.65;100.00;102802.38;5017028;28;20044;-64
2024/01/20 06:45:13;;;;;;;28.80;16.75;;;;;;;-1.67;100.00;102791.94;5019016;28;20030;-64
2024/01/20 06:47:38;;;;;;;28.40;16.42;;;;;;;-1.68;100.00;102792.81;5018360;28;20120;-64
2024/01/20 06:50:04;;;;;;;28.13;17.52;;;;;;;-1.70;100.00;102800.63;5022786;28;20072;-64
2024/01/20 06:52:31;;;;;;;26.70;16.35;;;;;;;-1.69;100.00;102810.16;5017819;28;20046;-64
2024/01/20 06:54:56;;;;;;;30.98;15.60;;;;;;;-1.68;100.00;102811.06;5020678;28;20040;-64
2024/01/20 06:57:22;;;;;;;26.50;17.17;;;;;;;-1.67;100.00;102820.59;5017793;28;20496;-64
2024/01/20 06:59:47;;;;;;;31.40;17.90;;;;;;;-1.68;100.00;102811.91;5019978;28;20180;-64
2024/01/20 07:02:12;;;;;;;26.95;16.15;;;;;;;-1.66;100.00;102811.06;5019784;28;20029;-65
2024/01/20 07:04:37;;;;;;;28.88;17.42;;;;;;;-1.68;100.00;102821.47;5018122;28;20479;-64
2024/01/20 07:07:03;;;;;;;27.80;17.13;;;;;;;-1.68;100.00;102821.47;5017558;28;20026;-65
2024/01/20 07:09:28;;;;;;;27.58;17.45;;;;;;;-1.69;100.00;102814.50;5015940;28;20034;-64
2024/01/20 07:11:56;;;;;;;30.50;17.45;;;;;;;-1.68;100.00;102813.66;5013386;28;20518;-64
2024/01/20 07:14:23;;;;;;;28.35;17.58;;;;;;;-1.66;100.00;102811.94;5014244;28;20030;-64
2024/01/20 07:16:48;;;;;;;26.48;16.85;;;;;;;-1.66;100.00;102818.88;5012689;28;20033;-64
2024/01/20 07:19:14;;;;;;;30.27;17.70;;;;;;;-1.68;100.00;102814.50;5013595;28;20511;-65
2024/01/20 07:21:39;;;;;;;29.52;18.00;;;;;;;-1.74;100.00;102811.88;5013232;28;20040;-64
2024/01/20 07:24:04;;;;;;;29.17;18.23;;;;;;;-1.77;100.00;102817.03;5016386;28;20033;-64
2024/01/20 07:26:30;;;;;;;33.28;18.50;;;;;;;-1.79;100.00;102815.31;5015859;28;20026;-64
2024/01/20 07:28:55;;;;;;;30.02;17.52;;;;;;;-1.81;100.00;102822.25;5003414;28;20030;-65
2024/01/20 07:31:22;;;;;;;31.23;17.85;;;;;;;-1.84;100.00;102820.47;5012075;28;20050;-65
2024/01/20 07:33:48;;;;;;;34.95;18.25;;;;;;;-1.89;100.00;102820.44;5008080;28;20025;-64
2024/01/20 07:36:13;;;;;;;35.03;18.60;;;;;;;-1.93;100.00;102816.09;5014120;28;20084;-64
2024/01/20 07:38:38;;;;;;;32.75;18.20;;;;;;;-1.95;100.00;102820.41;5016723;28;20030;-64
2024/01/20 07:41:04;;;;;;;28.63;18.13;;;;;;;-1.96;100.00;102821.28;5015499;28;20092;-64
2024/01/20 07:43:29;;;;;;;32.72;18.38;;;;;;;-1.97;100.00;102821.25;5020027;28;20025;-64
2024/01/20 07:45:55;;;;;;;33.28;18.95;;;;;;;-2.02;100.00;102820.34;5010801;28;20029;-64
2024/01/20 07:48:21;;;;;;;31.60;19.23;;;;;;;-2.03;100.00;102831.63;5012993;28;20076;-64
2024/01/20 07:50:46;;;;;;;31.50;18.52;;;;;;;-2.06;100.00;102822.06;5019622;28;20025;-64
2024/01/20 07:53:11;;;;;;;32.50;18.88;;;;;;;-2.08;100.00;102827.25;5020029;28;20490;-64
2024/01/20 07:55:37;;;;;;;33.33;18.33;;;;;;;-2.09;100.00;102829.84;5015864;28;20452;-64
2024/01/20 07:58:02;;;;;;;30.27;18.55;;;;;;;-2.11;100.00;102842.84;5018977;28;20033;-64
2024/01/20 08:00:28;;;;;;;28.77;18.00;;;;;;;-2.09;100.00;102838.53;5016336;28;20519;-64
2024/01/20 08:02:53;;;;;;;33.83;19.83;;;;;;;-2.08;100.00;102837.66;5014931;28;20026;-64
2024/01/20 08:05:18;;;;;;;31.55;17.98;;;;;;;-2.08;100.00;102844.63;5017689;28;20025;-64
2024/01/20 08:07:44;;;;;;;34.85;18.80;;;;;;;-2.08;100.00;102842.03;5021055;28;20056;-64
2024/01/20 08:10:10;;;;;;;34.60;20.50;;;;;;;-2.09;100.00;102846.34;5022318;28;20471;-64
2024/01/20 08:12:35;;;;;;;35.60;18.73;;;;;;;-2.09;100.00;102837.66;5020793;28;20076;-64
2024/01/20 08:15:00;;;;;;;34.00;18.73;;;;;;;-2.08;100.00;102844.63;5014002;28;20387;-65
2024/01/20 08:17:25;;;;;;;35.85;19.88;;;;;;;-2.10;100.00;102842.00;5021340;28;20041;-65
2024/01/20 08:19:51;;;;;;;36.42;20.42;;;;;;;-2.09;100.00;102845.47;5014864;28;20486;-65
2024/01/20 08:22:17;;;;;;;36.63;20.90;;;;;;;-2.11;100.00;102842.84;5018575;28;20116;-64
2024/01/20 08:24:43;;;;;;;34.35;20.17;;;;;;;-2.12;100.00;102848.91;5016781;28;20483;-65
2024/01/20 08:27:08;;;;;;;34.60;19.73;;;;;;;-2.10;100.00;102851.53;5018387;28;20092;-65
2024/01/20 08:29:33;;;;;;;32.83;19.50;;;;;;;-2.09;100.00;102853.28;5022304;28;20037;-65
2024/01/20 08:31:58;;;;;;;33.65;19.55;;;;;;;-2.09;100.00;102855.88;5015715;28;20080;-65
2024/01/20 08:34:24;;;;;;;34.35;19.65;;;;;;;-2.09;100.00;102856.75;5017927;28;20038;-65
2024/01/20 08:36:50;;;;;;;36.58;20.17;;;;;;;-2.08;100.00;102858.50;5012675;28;20475;-65
2024/01/20 08:39:19;;;;;;;37.45;19.92;;;;;;;-2.06;100.00;102858.53;5017598;28;20036;-65
2024/01/20 08:41:45;;;;;;;39.78;19.92;;;;;;;-2.07;100.00;102865.44;5018413;28;20041;-65
2024/01/20 08:44:10;;;;;;;35.95;19.85;;;;;;;-2.05;100.00;102870.66;5020599;28;20029;-65
2024/01/20 08:46:36;;;;;;;39.08;21.17;;;;;;;-2.03;100.00;102871.56;5019370;28;20375;-65
2024/01/20 08:49:01;;;;;;;33.95;19.70;;;;;;;-1.99;100.00;102870.72;5017487;28;20478;-65
2024/01/20 08:51:26;;;;;;;32.38;19.10;;;;;;;-1.97;100.00;102870.72;5021468;28;20610;-65
2024/01/20 08:53:52;;;;;;;33.40;20.65;;;;;;;-1.94;100.00;102875.97;5020420;28;20049;-65
2024/01/20 08:56:17;;;;;;;33.65;19.42;;;;;;;-1.92;100.00;102882.06;5017821;28;20151;-65
2024/01/20 08:58:42;;;;;;;31.15;18.15;;;;;;;-1.91;100.00;102876.00;5022721;28;20068;-65
2024/01/20 09:01:08;;;;;;;34.95;19.67;;;;;;;-1.92;100.00;102872.50;5019465;28;20045;-65
2024/01/20 09:03:33;;;;;;;33.55;19.02;;;;;;;-1.90;100.00;102869.91;5022564;28;20142;-65
2024/01/20 09:05:59;;;;;;;33.80;18.50;;;;;;;-1.89;100.00;102874.28;5019336;28;20034;-65
2024/01/20 09:08:24;;;;;;;27.80;17.80;;;;;;;-1.89;100.00;102877.75;5017697;28;20033;-65
2024/01/20 09:10:49;;;;;;;32.75;18.83;;;;;;;-1.87;100.00;102875.16;5017697;28;20542;-65
2024/01/20 09:13:15;;;;;;;32.03;18.58;;;;;;;-1.86;100.00;102880.38;5015450;28;20034;-65
2024/01/20 09:15:40;;;;;;;31.70;19.13;;;;;;;-1.86;100.00;102884.72;5016354;28;20083;-65
2024/01/20 09:18:06;;;;;;;32.65;18.70;;;;;;;-1.86;100.00;102879.50;5020127;28;20029;-65
2024/01/20 09:20:31;;;;;;;32.13;18.42;;;;;;;-1.89;100.00;102880.34;5016289;28;20041;-65
2024/01/20 09:22:57;;;;;;;31.02;19.23;;;;;;;-1.87;100.00;102888.19;5018678;28;20076;-64
2024/01/20 09:25:22;;;;;;;32.80;18.15;;;;;;;-1.88;100.00;102897.72;5018661;28;20352;-65
2024/01/20 09:27:47;;;;;;;31.38;18.77;;;;;;;-1.86;100.00;102900.34;5020863;28;20093;-65
2024/01/20 09:30:14;;;;;;;32.95;18.35;;;;;;;-1.87;100.00;102889.03;5015502;28;20026;-65
2024/01/20 09:32:39;;;;;;;31.23;17.70;;;;;;;-1.86;100.00;102882.97;5017079;28;20128;-64
2024/01/20 09:35:04;;;;;;;31.33;19.52;;;;;;;-1.84;100.00;102893.41;5015713;28;20145;-65
2024/01/20 09:37:30;;;;;;;30.95;18.92;;;;;;;-1.82;100.00;102885.63;5014665;28;20033;-64
2024/01/20 09:39:57;;;;;;;31.65;18.75;;;;;;;-1.81;100.00;102892.59;5016881;28;20030;-65
2024/01/20 09:42:22;;;;;;;34.50;19.52;;;;;;;-1.79;100.00;102890.84;5019535;28;20084;-64
2024/01/20 09:44:49;;;;;;;33.75;20.25;;;;;;;-1.78;100.00;102893.47;5016703;28;20029;-65
2024/01/20 09:47:14;;;;;;;32.58;18.65;;;;;;;-1.78;100.00;102906.50;5015209;28;20038;-64
2024/01/20 09:49:39;;;;;;;29.38;18.23;;;;;;;-1.77;100.00;102905.63;5011564;28;20026;-65
2024/01/20 09:52:17;;;;;;;33.88;18.73;;;;;;;-1.78;100.00;102913.41;5015537;28;20050;-65
2024/01/20 09:55:07;;;;;;;29.25;17.25;;;;;;;-1.79;100.00;102906.47;5013620;28;20048;-65
2024/01/20 09:57:36;;;;;;;27.95;17.85;;;;;;;-1.82;100.00;102912.53;5016297;28;20534;-64
2024/01/20 10:00:02;;;;;;;32.92;19.40;;;;;;;-1.78;100.00;102914.31;5014823;28;20039;-65
2024/01/20 10:02:29;;;;;;;34.47;19.25;;;;;;;-1.76;100.00;102911.72;5017578;28;20525;-64
2024/01/20 10:04:59;;;;;;;31.60;19.90;;;;;;;-1.69;100.00;102910.91;5018294;28;20057;-64
2024/01/20 10:07:28;;;;;;;32.25;19.70;;;;;;;-1.65;100.00;102917.88;5017960;28;20025;-63
2024/01/20 10:09:53;;;;;;;33.72;18.95;;;;;;;-1.64;100.00;102913.56;5016583;28;20073;-64
2024/01/20 10:12:18;;;;;;;35.47;20.25;;;;;;;-1.63;100.00;102920.50;5018056;28;20033;-63
2024/01/20 10:14:44;;;;;;;31.98;18.42;;;;;;;-1.63;100.00;102915.28;5017807;28;20040;-64
2024/01/20 10:17:09;;;;;;;29.85;17.95;;;;;;;-1.59;100.00;102914.47;5014234;28;20034;-64
2024/01/20 10:19:34;;;;;;;34.58;18.77;;;;;;;-1.57;100.00;102923.16;5012435;28;20057;-64
2024/01/20 10:22:00;;;;;;;34.38;18.45;;;;;;;-1.55;100.00;102924.91;5019025;28;20037;-64
2024/01/20 10:24:25;;;;;;;30.70;17.95;;;;;;;-1.53;100.00;102919.72;5017541;28;20021;-64
2024/01/20 10:26:52;;;;;;;29.08;17.45;;;;;;;-1.52;100.00;102921.44;5015626;28;20549;-63
2024/01/20 10:29:17;;;;;;;28.92;17.23;;;;;;;-1.49;100.00;102908.44;5006743;28;20514;-63
2024/01/20 10:31:43;;;;;;;29.80;18.02;;;;;;;-1.51;100.00;102904.97;5013489;28;20328;-63
2024/01/20 10:34:08;;;;;;;28.60;16.35;;;;;;;-1.47;100.00;102906.72;5013260;28;20056;-63
2024/01/20 10:36:33;;;;;;;26.40;16.75;;;;;;;-1.43;100.00;102891.97;5018708;28;20034;-63
2024/01/20 10:39:04;;;;;;;28.48;17.17;;;;;;;-1.39;100.00;102899.81;5017712;28;20104;-63
2024/01/20 10:41:30;;;;;;;28.48;16.48;;;;;;;-1.37;100.00;102897.22;5018177;28;20033;-63
2024/01/20 10:44:03;;;;;;;27.23;16.27;;;;;;;-1.31;100.00;102898.13;5015621;28;20356;-63
2024/01/20 10:46:34;;;;;;;28.67;16.23;;;;;;;-1.29;100.00;102897.28;5016732;28;20045;-64
2024/01/20 10:49:03;;;;;;;26.52;16.27;;;;;;;-1.24;100.00;102900.78;5018004;28;20030;-63
2024/01/20 10:51:29;;;;;;;27.38;15.85;;;;;;;-1.18;100.00;102908.66;5015969;28;20502;-63
2024/01/20 10:53:56;;;;;;;28.20;15.93;;;;;;;-1.18;100.00;102906.03;5019192;28;20510;-64